createdAt,value
2022-08-31T00:01:07.943Z,47.09
2022-08-31T00:03:53.010Z,47.17
2022-08-31T00:06:20.909Z,47.21
2022-08-31T00:08:48.642Z,46.91
2022-08-31T00:11:18.632Z,47.17
2022-08-31T00:13:46.540Z,47.18
2022-08-31T00:16:14.364Z,47.26
2022-08-31T00:18:42.167Z,46.99
2022-08-31T00:21:09.865Z,47.11
2022-08-31T00:23:37.661Z,47.05
2022-08-31T00:26:05.447Z,47.23
2022-08-31T00:28:34.543Z,47.39
2022-08-31T00:31:02.278Z,47.34
2022-08-31T00:33:30.106Z,47.35
2022-08-31T00:35:58.689Z,47.11
2022-08-31T00:38:26.420Z,47.34
2022-08-31T00:40:54.159Z,47.14
2022-08-31T00:43:46.100Z,47.13
2022-08-31T00:46:16.876Z,47.27
2022-08-31T00:48:46.617Z,47.12
2022-08-31T00:51:15.275Z,47.15
2022-08-31T00:53:48.089Z,47.50
2022-08-31T00:56:18.719Z,47.48
2022-08-31T00:58:48.921Z,47.45
2022-08-31T01:01:22.859Z,47.42
2022-08-31T01:03:50.674Z,47.25
2022-08-31T01:06:18.722Z,47.58
2022-08-31T01:08:46.475Z,47.23
2022-08-31T01:11:14.259Z,47.49
2022-08-31T01:13:42.021Z,47.23
2022-08-31T01:16:13.169Z,47.60
2022-08-31T01:18:40.938Z,47.70
2022-08-31T01:21:17.480Z,47.39
2022-08-31T01:23:46.652Z,47.56
2022-08-31T01:26:16.918Z,47.00
2022-08-31T01:28:44.760Z,47.17
2022-08-31T01:31:17.066Z,46.97
2022-08-31T01:33:44.819Z,47.33
2022-08-31T01:36:15.986Z,47.24
2022-08-31T01:38:44.187Z,46.95
2022-08-31T01:41:14.335Z,47.05
2022-08-31T01:43:42.260Z,47.39
2022-08-31T01:46:12.578Z,47.31
2022-08-31T01:48:41.583Z,47.35
2022-08-31T01:51:10.796Z,47.25
2022-08-31T01:53:40.297Z,47.37
2022-08-31T01:56:13.787Z,46.76
2022-08-31T01:58:41.683Z,46.92
2022-08-31T02:01:33.581Z,46.88
2022-08-31T02:04:00.471Z,47.14
2022-08-31T02:06:28.192Z,46.99
2022-08-31T02:08:55.906Z,46.95
2022-08-31T02:11:24.955Z,47.08
2022-08-31T02:13:52.686Z,47.33
2022-08-31T02:16:20.445Z,47.29
2022-08-31T02:18:48.218Z,47.04
2022-08-31T02:21:15.947Z,47.37
2022-08-31T02:23:43.693Z,47.01
2022-08-31T02:26:12.606Z,47.50
2022-08-31T02:28:41.881Z,47.45
2022-08-31T02:31:09.647Z,47.35
2022-08-31T02:33:37.402Z,47.41
2022-08-31T02:36:05.502Z,47.50
2022-08-31T02:38:33.754Z,47.08
2022-08-31T02:41:02.331Z,47.13
2022-08-31T02:43:30.151Z,47.49
2022-08-31T02:45:59.243Z,47.28
2022-08-31T02:48:26.992Z,47.12
2022-08-31T02:50:54.758Z,47.53
2022-08-31T02:53:23.434Z,47.32
2022-08-31T02:55:52.065Z,47.15
2022-08-31T02:58:24.022Z,47.14
2022-08-31T03:00:51.929Z,47.08
2022-08-31T03:03:21.938Z,47.43
2022-08-31T03:05:49.442Z,47.55
2022-08-31T03:08:17.133Z,47.67
2022-08-31T03:10:44.860Z,47.51
2022-08-31T03:13:12.603Z,47.58
2022-08-31T03:15:40.391Z,47.38
2022-08-31T03:18:08.115Z,47.63
2022-08-31T03:20:37.378Z,47.58
2022-08-31T03:23:05.104Z,47.50
2022-08-31T03:25:33.390Z,47.49
2022-08-31T03:28:01.104Z,47.51
2022-08-31T03:30:29.713Z,47.13
2022-08-31T03:33:02.483Z,47.50
2022-08-31T03:35:30.894Z,47.50
2022-08-31T03:38:01.233Z,47.54
2022-08-31T03:40:29.025Z,47.17
2022-08-31T03:42:57.981Z,47.21
2022-08-31T03:45:26.536Z,47.04
2022-08-31T03:47:54.226Z,47.66
2022-08-31T03:50:22.279Z,47.23
2022-08-31T03:52:50.005Z,47.32
2022-08-31T03:55:19.286Z,47.39
2022-08-31T03:57:46.984Z,47.11
2022-08-31T04:00:15.462Z,47.37
2022-08-31T04:02:43.434Z,47.42
2022-08-31T04:05:13.339Z,47.42
2022-08-31T04:07:42.610Z,47.41
2022-08-31T04:10:11.514Z,47.52
2022-08-31T04:12:40.729Z,47.43
2022-08-31T04:15:09.049Z,47.48
2022-08-31T04:17:36.750Z,47.29
2022-08-31T04:20:05.105Z,47.20
2022-08-31T04:22:32.803Z,47.37
2022-08-31T04:25:00.532Z,47.13
2022-08-31T04:27:28.222Z,47.27
2022-08-31T04:29:57.287Z,47.39
2022-08-31T04:32:25.007Z,47.43
2022-08-31T04:34:55.072Z,47.43
2022-08-31T04:37:24.320Z,47.54
2022-08-31T04:39:52.449Z,47.51
2022-08-31T04:42:20.189Z,47.52
2022-08-31T04:44:48.127Z,47.05
2022-08-31T04:47:17.159Z,47.31
2022-08-31T04:49:44.889Z,47.54
2022-08-31T04:52:12.595Z,47.49
2022-08-31T04:54:40.342Z,47.27
2022-08-31T04:57:08.066Z,47.60
2022-08-31T04:59:35.800Z,47.33
2022-08-31T05:02:04.078Z,47.55
2022-08-31T05:04:33.315Z,47.51
2022-08-31T05:07:01.014Z,47.52
2022-08-31T05:09:28.830Z,47.70
2022-08-31T05:11:56.607Z,47.57
2022-08-31T05:14:24.450Z,47.42
2022-08-31T05:16:52.491Z,47.74
2022-08-31T05:19:20.341Z,47.59
2022-08-31T05:21:49.478Z,47.84
2022-08-31T05:24:18.664Z,47.54
2022-08-31T05:26:48.236Z,47.90
2022-08-31T05:29:17.231Z,46.90
2022-08-31T05:31:49.086Z,46.91
2022-08-31T05:34:19.354Z,47.35
2022-08-31T05:36:50.244Z,47.72
2022-08-31T05:39:18.016Z,47.62
2022-08-31T05:41:46.502Z,47.46
2022-08-31T05:44:14.427Z,47.33
2022-08-31T05:46:42.385Z,47.46
2022-08-31T05:49:11.518Z,47.25
2022-08-31T05:51:39.648Z,47.28
2022-08-31T05:54:10.761Z,47.43
2022-08-31T05:56:38.608Z,46.83
2022-08-31T05:59:06.781Z,47.40
2022-08-31T06:01:36.072Z,47.38
2022-08-31T06:04:04.548Z,47.59
2022-08-31T06:06:32.291Z,47.49
2022-08-31T06:09:00.062Z,47.94
2022-08-31T06:11:30.107Z,47.58
2022-08-31T06:13:58.423Z,47.77
2022-08-31T06:16:26.398Z,47.74
2022-08-31T06:18:55.651Z,47.62
2022-08-31T06:21:24.413Z,47.36
2022-08-31T06:23:52.926Z,47.32
2022-08-31T06:26:21.625Z,47.33
2022-08-31T06:28:52.239Z,47.32
2022-08-31T06:31:25.095Z,47.39
2022-08-31T06:33:52.990Z,47.28
2022-08-31T06:36:21.883Z,47.56
2022-08-31T06:38:49.583Z,47.14
2022-08-31T06:41:18.293Z,47.24
2022-08-31T06:43:46.077Z,47.44
2022-08-31T06:46:15.442Z,47.59
2022-08-31T06:48:43.167Z,47.42
2022-08-31T06:51:11.033Z,47.46
2022-08-31T06:53:40.198Z,47.28
2022-08-31T06:56:20.296Z,47.10
2022-08-31T06:58:50.899Z,47.14
2022-08-31T07:01:35.261Z,47.35
2022-08-31T07:04:05.536Z,46.95
2022-08-31T07:06:35.461Z,46.63
2022-08-31T07:09:04.480Z,47.12
2022-08-31T07:11:33.832Z,46.73
2022-08-31T07:14:04.090Z,46.78
2022-08-31T07:16:33.309Z,47.05
2022-08-31T07:19:03.373Z,46.86
2022-08-31T07:21:31.518Z,46.93
2022-08-31T07:24:00.964Z,46.96
2022-08-31T07:26:32.443Z,46.60
2022-08-31T07:29:06.866Z,47.20
2022-08-31T07:31:40.278Z,46.96
2022-08-31T07:34:08.917Z,47.03
2022-08-31T07:36:56.834Z,46.88
2022-08-31T07:39:56.679Z,46.43
2022-08-31T07:42:28.588Z,46.38
2022-08-31T07:44:57.454Z,46.42
2022-08-31T07:47:28.355Z,46.43
2022-08-31T07:49:56.967Z,46.46
2022-08-31T07:52:25.695Z,46.32
2022-08-31T07:54:54.593Z,46.47
2022-08-31T07:57:25.681Z,46.52
2022-08-31T07:59:55.475Z,46.67
2022-08-31T08:02:23.612Z,46.48
2022-08-31T08:04:54.001Z,46.25
2022-08-31T08:07:21.740Z,46.37
2022-08-31T08:09:49.706Z,46.63
2022-08-31T08:12:22.490Z,46.18
2022-08-31T08:14:51.894Z,46.24
2022-08-31T08:17:19.597Z,46.52
2022-08-31T08:19:47.350Z,46.20
2022-08-31T08:22:30.648Z,46.49
2022-08-31T08:25:05.202Z,46.56
2022-08-31T08:27:33.962Z,46.34
2022-08-31T08:30:01.734Z,46.37
2022-08-31T08:32:31.509Z,46.57
2022-08-31T08:34:59.924Z,46.52
2022-08-31T08:37:54.230Z,46.55
2022-08-31T08:40:22.744Z,46.14
2022-08-31T08:42:50.523Z,46.53
2022-08-31T08:45:18.513Z,46.44
2022-08-31T08:47:51.668Z,46.22
2022-08-31T08:50:19.486Z,46.52
2022-08-31T08:52:48.610Z,46.50
2022-08-31T08:55:18.327Z,46.36
2022-08-31T08:57:47.142Z,46.38
2022-08-31T09:00:16.922Z,45.98
2022-08-31T09:02:49.866Z,46.25
2022-08-31T09:05:32.140Z,46.02
2022-08-31T09:08:18.126Z,45.93
2022-08-31T09:10:47.045Z,46.30
2022-08-31T09:13:21.172Z,45.91
2022-08-31T09:16:04.611Z,46.11
2022-08-31T09:18:46.632Z,45.84
2022-08-31T09:21:21.536Z,45.96
2022-08-31T09:23:54.249Z,45.68
2022-08-31T09:26:25.084Z,46.13
2022-08-31T09:28:52.924Z,45.86
2022-08-31T09:31:42.394Z,45.97
2022-08-31T09:34:12.547Z,45.63
2022-08-31T09:36:40.962Z,45.62
2022-08-31T09:39:21.597Z,45.44
2022-08-31T09:41:49.763Z,45.88
2022-08-31T09:44:31.472Z,45.45
2022-08-31T09:47:02.040Z,45.57
2022-08-31T09:49:30.748Z,45.44
2022-08-31T09:52:20.764Z,45.49
2022-08-31T09:55:13.344Z,45.35
2022-08-31T09:57:53.948Z,45.59
2022-08-31T10:00:36.303Z,45.51
2022-08-31T10:03:12.209Z,45.72
2022-08-31T10:05:42.532Z,45.50
2022-08-31T10:08:29.759Z,45.54
2022-08-31T10:10:59.176Z,45.63
2022-08-31T10:13:34.359Z,45.35
2022-08-31T10:16:06.795Z,45.21
2022-08-31T10:18:38.124Z,45.06
2022-08-31T10:21:08.497Z,45.36
2022-08-31T10:23:38.190Z,45.33
2022-08-31T10:26:10.087Z,44.94
2022-08-31T10:28:41.827Z,45.17
2022-08-31T10:31:13.714Z,45.02
2022-08-31T10:34:00.759Z,45.06
2022-08-31T10:36:36.736Z,45.23
2022-08-31T10:39:04.964Z,45.06
2022-08-31T10:41:35.990Z,45.12
2022-08-31T10:44:07.111Z,45.29
2022-08-31T10:46:35.648Z,45.24
2022-08-31T10:49:04.103Z,45.11
2022-08-31T10:51:47.408Z,45.28
2022-08-31T10:54:28.318Z,45.22
2022-08-31T10:57:01.703Z,45.04
2022-08-31T10:59:33.416Z,45.28
2022-08-31T11:02:09.287Z,45.08
2022-08-31T11:04:53.105Z,45.47
2022-08-31T11:07:27.343Z,45.49
2022-08-31T11:09:59.938Z,45.33
2022-08-31T11:12:31.314Z,45.29
2022-08-31T11:15:10.908Z,45.09
2022-08-31T11:17:47.365Z,45.43
2022-08-31T11:20:40.988Z,45.08
2022-08-31T11:23:27.896Z,44.92
2022-08-31T11:26:11.447Z,44.86
2022-08-31T11:28:41.516Z,44.93
2022-08-31T11:31:14.786Z,44.97
2022-08-31T11:34:12.250Z,44.57
2022-08-31T11:36:50.463Z,44.98
2022-08-31T11:39:40.217Z,44.67
2022-08-31T11:42:12.622Z,44.81
2022-08-31T11:45:07.239Z,44.63
2022-08-31T11:47:44.372Z,44.86
2022-08-31T11:50:28.229Z,44.88
2022-08-31T11:52:56.817Z,44.72
2022-08-31T11:55:27.105Z,44.52
2022-08-31T11:58:33.767Z,44.35
2022-08-31T12:01:25.712Z,44.49
2022-08-31T12:03:55.884Z,44.32
2022-08-31T12:07:09.065Z,44.62
2022-08-31T12:10:15.163Z,44.35
2022-08-31T12:13:25.284Z,44.48
2022-08-31T12:16:04.180Z,44.46
2022-08-31T12:19:06.598Z,44.40
2022-08-31T12:21:58.153Z,43.91
2022-08-31T12:24:31.317Z,44.25
2022-08-31T12:27:08.481Z,43.88
2022-08-31T12:29:38.381Z,44.19
2022-08-31T12:32:19.149Z,44.22
2022-08-31T12:34:50.919Z,43.86
2022-08-31T12:37:21.284Z,43.98
2022-08-31T12:39:49.829Z,43.96
2022-08-31T12:42:19.540Z,43.76
2022-08-31T12:44:50.787Z,43.96
2022-08-31T12:47:24.232Z,43.84
2022-08-31T12:50:08.759Z,43.75
2022-08-31T12:52:43.902Z,42.93
2022-08-31T12:55:16.746Z,43.33
2022-08-31T12:58:05.177Z,43.43
2022-08-31T13:00:34.168Z,42.83
2022-08-31T13:03:15.495Z,43.27
2022-08-31T13:05:46.628Z,42.93
2022-08-31T13:08:22.075Z,42.70
2022-08-31T13:10:50.626Z,43.12
2022-08-31T13:13:23.072Z,43.05
2022-08-31T13:15:50.818Z,43.00
2022-08-31T13:18:23.168Z,42.82
2022-08-31T13:20:56.214Z,42.83
2022-08-31T13:23:27.681Z,43.10
2022-08-31T13:26:00.782Z,42.79
2022-08-31T13:28:30.423Z,42.93
2022-08-31T13:31:02.820Z,42.82
2022-08-31T13:33:32.350Z,42.64
2022-08-31T13:36:04.656Z,42.79
2022-08-31T13:38:43.188Z,42.11
2022-08-31T13:41:17.233Z,40.86
2022-08-31T13:43:58.815Z,40.55
2022-08-31T13:46:41.803Z,40.43
2022-08-31T13:49:21.995Z,40.07
2022-08-31T13:51:51.058Z,39.60
2022-08-31T13:54:26.767Z,39.41
2022-08-31T13:56:58.898Z,39.99
2022-08-31T13:59:32.962Z,39.79
2022-08-31T14:02:01.968Z,39.94
2022-08-31T14:04:43.966Z,39.99
2022-08-31T14:07:16.970Z,40.14
2022-08-31T14:09:45.808Z,40.10
2022-08-31T14:12:21.942Z,40.23
2022-08-31T14:14:50.236Z,40.20
2022-08-31T14:17:18.089Z,40.09
2022-08-31T14:19:46.089Z,40.30
2022-08-31T14:22:28.068Z,40.19
2022-08-31T14:24:56.479Z,40.60
2022-08-31T14:27:24.326Z,40.32
2022-08-31T14:29:52.926Z,40.12
2022-08-31T14:32:22.690Z,40.28
2022-08-31T14:34:51.205Z,40.12
2022-08-31T14:37:22.425Z,39.99
2022-08-31T14:39:51.512Z,39.59
2022-08-31T14:42:21.363Z,39.47
2022-08-31T14:44:56.517Z,39.54
2022-08-31T14:47:25.188Z,39.52
2022-08-31T14:49:52.940Z,39.47
2022-08-31T14:52:21.990Z,39.15
2022-08-31T14:54:49.772Z,39.39
2022-08-31T14:57:19.427Z,39.24
2022-08-31T14:59:47.753Z,39.18
2022-08-31T15:02:21.596Z,39.23
2022-08-31T15:04:49.459Z,38.97
2022-08-31T15:07:17.257Z,39.31
2022-08-31T15:09:47.840Z,39.16
2022-08-31T15:12:18.024Z,38.78
2022-08-31T15:14:47.322Z,39.15
2022-08-31T15:17:19.182Z,38.83
2022-08-31T15:19:50.233Z,38.83
2022-08-31T15:22:18.246Z,38.88
2022-08-31T15:24:47.518Z,38.45
2022-08-31T15:27:15.543Z,38.66
2022-08-31T15:29:43.458Z,38.64
2022-08-31T15:32:11.250Z,38.46
2022-08-31T15:34:39.264Z,38.24
2022-08-31T15:37:07.700Z,38.19
2022-08-31T15:39:36.589Z,38.05
2022-08-31T15:42:09.390Z,38.05
2022-08-31T15:44:37.245Z,38.00
2022-08-31T15:47:22.353Z,37.80
2022-08-31T15:49:51.127Z,37.77
2022-08-31T15:52:19.817Z,37.60
2022-08-31T15:54:48.545Z,37.69
2022-08-31T15:57:17.658Z,37.49
2022-08-31T15:59:46.031Z,37.35
2022-08-31T16:02:14.717Z,37.50
2022-08-31T16:04:43.455Z,37.56
2022-08-31T16:07:11.322Z,37.45
2022-08-31T16:09:40.880Z,37.45
2022-08-31T16:12:12.080Z,37.30
2022-08-31T16:14:44.521Z,37.41
2022-08-31T16:17:12.371Z,37.31
2022-08-31T16:19:40.761Z,37.46
2022-08-31T16:22:08.871Z,37.25
2022-08-31T16:24:37.181Z,37.17
2022-08-31T16:27:06.432Z,37.08
2022-08-31T16:29:34.332Z,37.25
2022-08-31T16:32:03.876Z,37.11
2022-08-31T16:34:31.769Z,37.01
2022-08-31T16:37:01.114Z,36.87
2022-08-31T16:39:28.988Z,36.98
2022-08-31T16:44:20.326Z,36.83
2022-08-31T16:46:48.442Z,37.02
2022-08-31T16:49:36.024Z,36.89
2022-08-31T16:52:06.120Z,36.82
2022-08-31T16:54:34.120Z,36.64
2022-08-31T16:57:02.033Z,36.53
2022-08-31T16:59:30.273Z,36.54
2022-08-31T17:01:58.405Z,36.56
2022-08-31T17:07:16.287Z,36.48
2022-08-31T17:09:44.149Z,36.57
2022-08-31T17:12:13.806Z,36.27
2022-08-31T17:14:46.559Z,36.45
2022-08-31T17:17:15.612Z,36.58
2022-08-31T17:19:45.238Z,36.74
2022-08-31T17:22:21.339Z,36.46
2022-08-31T17:24:50.464Z,36.64
2022-08-31T17:27:20.383Z,36.48
2022-08-31T17:29:49.961Z,36.67
2022-08-31T17:32:19.994Z,36.72
2022-08-31T17:34:51.620Z,36.68
2022-08-31T17:37:25.195Z,36.81
2022-08-31T17:39:53.158Z,36.58
2022-08-31T17:42:21.218Z,36.85
2022-08-31T17:44:50.375Z,37.31
2022-08-31T17:47:18.250Z,37.14
2022-08-31T17:49:46.806Z,37.20
2022-08-31T17:52:16.106Z,37.19
2022-08-31T17:54:45.365Z,37.20
2022-08-31T17:57:14.056Z,37.20
2022-08-31T17:59:42.808Z,37.53
2022-08-31T18:02:11.511Z,37.57
2022-08-31T18:04:39.511Z,37.61
2022-08-31T18:07:07.817Z,37.63
2022-08-31T18:09:40.374Z,37.64
2022-08-31T18:12:08.447Z,37.55
2022-08-31T18:14:38.123Z,37.63
2022-08-31T18:17:08.234Z,37.68
2022-08-31T18:19:36.400Z,37.86
2022-08-31T18:22:04.396Z,37.81
2022-08-31T18:24:34.187Z,37.87
2022-08-31T18:27:04.311Z,37.86
2022-08-31T18:29:34.060Z,37.56
2022-08-31T18:32:04.020Z,37.98
2022-08-31T18:34:32.037Z,38.00
2022-08-31T18:36:59.949Z,37.96
2022-08-31T18:39:50.659Z,38.11
2022-08-31T18:42:32.702Z,38.29
2022-08-31T18:45:19.835Z,38.19
2022-08-31T18:48:07.249Z,38.33
2022-08-31T18:50:37.166Z,38.44
2022-08-31T18:53:11.142Z,38.66
2022-08-31T18:55:43.527Z,38.39
2022-08-31T18:58:12.841Z,38.48
2022-08-31T19:00:40.915Z,38.78
2022-08-31T19:03:08.817Z,38.57
2022-08-31T19:05:39.374Z,38.81
2022-08-31T19:08:07.198Z,38.57
2022-08-31T19:10:35.846Z,38.54
2022-08-31T19:13:07.603Z,38.68
2022-08-31T19:15:40.140Z,39.00
2022-08-31T19:18:08.080Z,38.74
2022-08-31T19:20:36.328Z,38.67
2022-08-31T19:23:04.176Z,38.83
2022-08-31T19:25:32.611Z,39.17
2022-08-31T19:28:01.747Z,38.91
2022-08-31T19:30:29.869Z,38.96
2022-08-31T19:32:59.322Z,38.87
2022-08-31T19:35:27.466Z,38.96
2022-08-31T19:37:56.338Z,38.82
2022-08-31T19:40:42.984Z,38.89
2022-08-31T19:46:16.037Z,38.91
2022-08-31T19:48:45.641Z,39.29
2022-08-31T19:51:14.294Z,39.29
2022-08-31T19:53:45.172Z,39.25
2022-08-31T19:56:14.749Z,39.33
2022-08-31T19:58:42.927Z,39.26
2022-08-31T20:01:11.402Z,39.24
2022-08-31T20:03:39.177Z,39.17
2022-08-31T20:06:09.564Z,39.17
2022-08-31T20:08:37.697Z,39.23
2022-08-31T20:11:07.210Z,39.14
2022-08-31T20:13:35.121Z,39.33
2022-08-31T20:16:04.699Z,39.41
2022-08-31T20:18:32.624Z,39.49
2022-08-31T20:21:01.064Z,39.31
2022-08-31T20:23:30.795Z,39.27
2022-08-31T20:25:58.812Z,39.45
2022-08-31T20:28:27.591Z,39.36
2022-08-31T20:31:00.123Z,39.21
2022-08-31T20:33:28.264Z,39.23
2022-08-31T20:35:56.017Z,39.28
2022-08-31T20:38:23.852Z,39.21
2022-08-31T20:40:52.943Z,39.49
2022-08-31T20:43:21.413Z,39.46
2022-08-31T20:45:49.412Z,39.13
2022-08-31T20:48:34.782Z,39.31
2022-08-31T20:51:15.940Z,39.10
2022-08-31T20:53:44.506Z,39.36
2022-08-31T20:56:14.744Z,39.56
2022-08-31T20:58:45.097Z,39.37
2022-08-31T21:01:13.682Z,39.49
2022-08-31T21:03:41.745Z,39.09
2022-08-31T21:06:11.626Z,39.50
2022-08-31T21:08:39.353Z,39.35
2022-08-31T21:11:15.810Z,39.51
2022-08-31T21:13:44.681Z,39.44
2022-08-31T21:16:12.511Z,39.27
2022-08-31T21:18:40.677Z,39.79
2022-08-31T21:21:23.362Z,39.61
2022-08-31T21:23:53.374Z,39.23
2022-08-31T21:26:28.930Z,39.26
2022-08-31T21:29:08.061Z,39.69
2022-08-31T21:32:03.403Z,39.51
2022-08-31T21:34:49.331Z,39.39
2022-08-31T21:37:28.486Z,39.41
2022-08-31T21:40:34.057Z,39.63
2022-08-31T21:44:00.319Z,39.51
2022-08-31T21:46:51.624Z,39.88
2022-08-31T21:49:36.550Z,39.69
2022-08-31T21:52:23.769Z,39.28
2022-08-31T21:54:56.528Z,39.39
2022-08-31T21:57:38.750Z,39.84
2022-08-31T22:01:09.781Z,39.75
2022-08-31T22:03:59.378Z,39.69
2022-08-31T22:09:44.436Z,39.57
2022-08-31T22:12:41.311Z,39.50
2022-08-31T22:15:11.333Z,39.76
2022-08-31T22:18:01.403Z,39.80
2022-08-31T22:20:31.712Z,39.59
2022-08-31T22:22:59.740Z,39.78
2022-08-31T22:25:27.625Z,39.47
2022-08-31T22:27:55.364Z,39.67
2022-08-31T22:30:24.008Z,39.57
2022-08-31T22:32:53.894Z,39.56
2022-08-31T22:35:22.243Z,39.63
2022-08-31T22:37:50.043Z,39.70
2022-08-31T22:40:20.322Z,39.84
2022-08-31T22:42:49.029Z,39.51
2022-08-31T22:45:17.178Z,39.49
2022-08-31T22:47:49.813Z,39.80
2022-08-31T22:50:19.636Z,39.62
2022-08-31T22:52:47.507Z,39.52
2022-08-31T22:55:15.271Z,39.68
2022-08-31T22:57:43.001Z,39.48
2022-08-31T23:00:13.190Z,39.53
2022-08-31T23:02:45.032Z,39.93
2022-08-31T23:05:14.128Z,39.95
2022-08-31T23:07:43.213Z,39.91
2022-08-31T23:10:11.088Z,39.81
2022-08-31T23:12:38.787Z,40.02
2022-08-31T23:15:10.487Z,40.10
2022-08-31T23:17:39.287Z,40.08
2022-08-31T23:20:07.728Z,39.75
2022-08-31T23:22:35.561Z,39.67
2022-08-31T23:25:05.821Z,39.79
2022-08-31T23:27:33.511Z,40.05
2022-08-31T23:30:01.385Z,39.94
2022-08-31T23:32:29.173Z,40.10
2022-08-31T23:34:58.056Z,39.98
2022-08-31T23:37:26.080Z,40.07
2022-08-31T23:39:54.371Z,40.18
2022-08-31T23:42:23.610Z,40.05
2022-08-31T23:44:51.387Z,39.80
2022-08-31T23:47:21.367Z,39.85
2022-08-31T23:49:51.142Z,39.85
2022-08-31T23:52:21.390Z,39.82
2022-08-31T23:54:49.817Z,40.16
2022-08-31T23:57:32.358Z,39.94
